ROMMA est une association bénévole à but non lucratif. Votre soutien est indispensable : ADHERER à ROMMA ou FAIRE un DON

Peyrus - (26, Drôme)

Vercors Ouest (430 m)   Longitude: 05°06'28"E   Latitude: 44°54'41"N Station partenaire n°83
 

Détail journalier du     <<     >>

Température Precipitation Humidité Pression Vent Dir Rafale Dir. rafale Second capteur de température situé à 410 m
Heure (°C) (mm) (%) (hPa) (km/h) (km/h) (°C)
01:00 4.506310202N15NNO3.9
02:00 3.60671020010NNE1.7
03:00 3.806710191ENE15N1.1
04:00 1.3076101900-1.7
05:00 0.3080101903SSE-2.8
06:00 0.2082101906SSE-2.2
07:00 0.2081101903SSO-2.2
08:00 0.6081102000-1.7
09:00 4.80731020004.4
10:00 6.3068102005N7.2
11:00 8.1063102008NNE8.9
12:00 9.406110201N10NNE10.6
13:00 11.605910191N11N12.8
14:00 14.005210184N27NNE13.9
15:00 15.8049101710NNE26NNE16.1
16:00 15.404710165ENE24N16.7
17:00 16.004910165E26ESE17.2
18:00 14.705610165E23S15.6
19:00 13.406110167ESE29ESE13.9
20:00 12.206810174ESE24S12.2
21:00 11.307310174SSE27S11.1
22:00 10.907410174SE21SO11.1
23:00 10.607610174SE26SSE10.6
minuit 10.107810172SE21ESE10.0

Graphique du 15-04-2019

 

Serveur OMMA